sensor_id;sensor_type;location;lat;lon;timestamp;P1;durP1;ratioP1;P2;durP2;ratioP2
46731;SDS011;32477;51.474;5.696;2023-07-20T00:02:19;11.65;;;4.70;;
46731;SDS011;32477;51.474;5.696;2023-07-20T00:04:45;15.35;;;4.60;;
46731;SDS011;32477;51.474;5.696;2023-07-20T00:07:10;8.90;;;4.38;;
46731;SDS011;32477;51.474;5.696;2023-07-20T00:09:36;12.73;;;4.78;;
46731;SDS011;32477;51.474;5.696;2023-07-20T00:12:02;8.30;;;4.82;;
46731;SDS011;32477;51.474;5.696;2023-07-20T00:14:28;15.10;;;5.15;;
46731;SDS011;32477;51.474;5.696;2023-07-20T00:16:55;9.00;;;4.38;;
46731;SDS011;32477;51.474;5.696;2023-07-20T00:19:24;8.57;;;4.65;;
46731;SDS011;32477;51.474;5.696;2023-07-20T00:21:51;9.63;;;4.68;;
46731;SDS011;32477;51.474;5.696;2023-07-20T00:24:17;9.45;;;5.13;;
46731;SDS011;32477;51.474;5.696;2023-07-20T00:26:42;9.32;;;5.65;;
46731;SDS011;32477;51.474;5.696;2023-07-20T00:29:08;10.20;;;5.20;;
46731;SDS011;32477;51.474;5.696;2023-07-20T00:31:34;12.32;;;5.30;;
46731;SDS011;32477;51.474;5.696;2023-07-20T00:34:02;11.68;;;4.53;;
46731;SDS011;32477;51.474;5.696;2023-07-20T00:36:31;8.32;;;5.30;;
46731;SDS011;32477;51.474;5.696;2023-07-20T00:38:57;10.23;;;5.63;;
46731;SDS011;32477;51.474;5.696;2023-07-20T00:41:22;13.48;;;5.22;;
46731;SDS011;32477;51.474;5.696;2023-07-20T00:43:48;13.68;;;5.38;;
46731;SDS011;32477;51.474;5.696;2023-07-20T00:46:14;9.68;;;5.00;;
46731;SDS011;32477;51.474;5.696;2023-07-20T00:48:40;11.32;;;5.20;;
46731;SDS011;32477;51.474;5.696;2023-07-20T00:51:06;16.38;;;5.95;;
46731;SDS011;32477;51.474;5.696;2023-07-20T00:53:32;15.65;;;5.70;;
46731;SDS011;32477;51.474;5.696;2023-07-20T00:55:58;15.32;;;5.50;;
46731;SDS011;32477;51.474;5.696;2023-07-20T00:58:24;14.77;;;5.18;;
46731;SDS011;32477;51.474;5.696;2023-07-20T01:00:49;10.35;;;5.45;;
46731;SDS011;32477;51.474;5.696;2023-07-20T01:03:15;17.08;;;5.32;;
46731;SDS011;32477;51.474;5.696;2023-07-20T01:11:12;11.57;;;5.80;;
46731;SDS011;32477;51.474;5.696;2023-07-20T01:14:09;23.77;;;6.03;;
46731;SDS011;32477;51.474;5.696;2023-07-20T01:16:37;9.43;;;5.45;;
46731;SDS011;32477;51.474;5.696;2023-07-20T01:19:02;12.35;;;5.80;;
46731;SDS011;32477;51.474;5.696;2023-07-20T01:21:33;13.52;;;6.68;;
46731;SDS011;32477;51.474;5.696;2023-07-20T01:24:12;22.08;;;6.28;;
46731;SDS011;32477;51.474;5.696;2023-07-20T01:32:38;13.77;;;6.33;;
46731;SDS011;32477;51.474;5.696;2023-07-20T01:35:07;14.15;;;6.43;;
46731;SDS011;32477;51.474;5.696;2023-07-20T01:37:35;10.15;;;6.22;;
46731;SDS011;32477;51.474;5.696;2023-07-20T01:40:02;17.58;;;6.43;;
46731;SDS011;32477;51.474;5.696;2023-07-20T01:42:28;16.05;;;7.57;;
46731;SDS011;32477;51.474;5.696;2023-07-20T01:44:54;14.55;;;6.82;;
46731;SDS011;32477;51.474;5.696;2023-07-20T01:47:20;18.25;;;6.75;;
46731;SDS011;32477;51.474;5.696;2023-07-20T01:49:45;17.83;;;7.32;;
46731;SDS011;32477;51.474;5.696;2023-07-20T01:52:11;24.20;;;7.40;;
46731;SDS011;32477;51.474;5.696;2023-07-20T01:54:37;19.15;;;7.45;;
46731;SDS011;32477;51.474;5.696;2023-07-20T01:57:02;16.83;;;7.68;;
46731;SDS011;32477;51.474;5.696;2023-07-20T01:59:29;13.95;;;7.15;;
46731;SDS011;32477;51.474;5.696;2023-07-20T02:01:54;21.67;;;6.72;;
46731;SDS011;32477;51.474;5.696;2023-07-20T02:04:20;11.73;;;5.90;;
46731;SDS011;32477;51.474;5.696;2023-07-20T02:06:46;19.92;;;6.53;;
46731;SDS011;32477;51.474;5.696;2023-07-20T02:09:11;13.98;;;6.25;;
46731;SDS011;32477;51.474;5.696;2023-07-20T02:11:37;20.25;;;6.43;;
46731;SDS011;32477;51.474;5.696;2023-07-20T02:14:02;15.23;;;7.28;;
46731;SDS011;32477;51.474;5.696;2023-07-20T02:16:28;16.30;;;7.00;;
46731;SDS011;32477;51.474;5.696;2023-07-20T02:18:54;15.80;;;7.22;;
46731;SDS011;32477;51.474;5.696;2023-07-20T02:21:21;15.18;;;6.78;;
46731;SDS011;32477;51.474;5.696;2023-07-20T02:23:48;16.92;;;7.22;;
46731;SDS011;32477;51.474;5.696;2023-07-20T02:26:13;18.77;;;8.20;;
46731;SDS011;32477;51.474;5.696;2023-07-20T02:28:39;17.17;;;7.97;;
46731;SDS011;32477;51.474;5.696;2023-07-20T02:31:06;15.40;;;8.02;;
46731;SDS011;32477;51.474;5.696;2023-07-20T02:33:32;23.48;;;9.23;;
46731;SDS011;32477;51.474;5.696;2023-07-20T02:35:57;17.30;;;9.35;;
46731;SDS011;32477;51.474;5.696;2023-07-20T02:38:23;16.92;;;10.00;;
46731;SDS011;32477;51.474;5.696;2023-07-20T02:40:49;22.42;;;10.80;;
46731;SDS011;32477;51.474;5.696;2023-07-20T02:43:15;21.77;;;9.98;;
46731;SDS011;32477;51.474;5.696;2023-07-20T02:45:41;24.27;;;11.95;;
46731;SDS011;32477;51.474;5.696;2023-07-20T02:48:09;21.63;;;11.70;;
46731;SDS011;32477;51.474;5.696;2023-07-20T02:50:35;20.70;;;12.30;;
46731;SDS011;32477;51.474;5.696;2023-07-20T02:53:01;23.80;;;12.00;;
46731;SDS011;32477;51.474;5.696;2023-07-20T02:55:27;22.30;;;12.75;;
46731;SDS011;32477;51.474;5.696;2023-07-20T02:57:53;21.20;;;12.85;;
46731;SDS011;32477;51.474;5.696;2023-07-20T03:00:18;21.55;;;13.00;;
46731;SDS011;32477;51.474;5.696;2023-07-20T03:02:45;21.13;;;12.88;;
46731;SDS011;32477;51.474;5.696;2023-07-20T03:05:20;22.48;;;12.48;;
46731;SDS011;32477;51.474;5.696;2023-07-20T03:07:47;20.98;;;12.77;;
46731;SDS011;32477;51.474;5.696;2023-07-20T03:10:12;22.17;;;12.27;;
46731;SDS011;32477;51.474;5.696;2023-07-20T03:12:38;24.73;;;12.85;;
46731;SDS011;32477;51.474;5.696;2023-07-20T03:15:04;21.08;;;13.70;;
46731;SDS011;32477;51.474;5.696;2023-07-20T03:17:30;23.60;;;14.23;;
46731;SDS011;32477;51.474;5.696;2023-07-20T03:19:55;23.00;;;12.30;;
46731;SDS011;32477;51.474;5.696;2023-07-20T03:22:21;21.08;;;13.23;;
46731;SDS011;32477;51.474;5.696;2023-07-20T03:24:47;20.65;;;12.23;;
46731;SDS011;32477;51.474;5.696;2023-07-20T03:27:13;21.95;;;12.68;;
46731;SDS011;32477;51.474;5.696;2023-07-20T03:29:38;20.20;;;12.15;;
46731;SDS011;32477;51.474;5.696;2023-07-20T03:32:05;22.35;;;13.88;;
46731;SDS011;32477;51.474;5.696;2023-07-20T03:34:31;22.70;;;12.43;;
46731;SDS011;32477;51.474;5.696;2023-07-20T03:36:56;20.60;;;12.77;;
46731;SDS011;32477;51.474;5.696;2023-07-20T03:39:22;27.42;;;13.20;;
46731;SDS011;32477;51.474;5.696;2023-07-20T03:41:48;21.73;;;13.02;;
46731;SDS011;32477;51.474;5.696;2023-07-20T03:44:13;25.02;;;12.13;;
46731;SDS011;32477;51.474;5.696;2023-07-20T03:46:39;19.20;;;11.68;;
46731;SDS011;32477;51.474;5.696;2023-07-20T03:49:05;16.08;;;11.02;;
46731;SDS011;32477;51.474;5.696;2023-07-20T03:51:31;15.75;;;11.45;;
46731;SDS011;32477;51.474;5.696;2023-07-20T03:53:57;15.45;;;10.43;;
46731;SDS011;32477;51.474;5.696;2023-07-20T03:56:23;17.35;;;10.60;;
46731;SDS011;32477;51.474;5.696;2023-07-20T03:58:49;23.05;;;11.25;;
46731;SDS011;32477;51.474;5.696;2023-07-20T04:01:15;14.95;;;9.32;;
46731;SDS011;32477;51.474;5.696;2023-07-20T04:03:41;18.15;;;10.75;;
46731;SDS011;32477;51.474;5.696;2023-07-20T04:06:08;19.17;;;12.05;;
46731;SDS011;32477;51.474;5.696;2023-07-20T04:08:33;17.00;;;11.70;;
46731;SDS011;32477;51.474;5.696;2023-07-20T04:11:03;18.85;;;12.00;;
46731;SDS011;32477;51.474;5.696;2023-07-20T04:13:28;23.27;;;12.00;;
46731;SDS011;32477;51.474;5.696;2023-07-20T04:15:59;20.02;;;12.35;;
46731;SDS011;32477;51.474;5.696;2023-07-20T04:18:25;21.10;;;12.05;;
46731;SDS011;32477;51.474;5.696;2023-07-20T04:20:50;20.60;;;11.32;;
46731;SDS011;32477;51.474;5.696;2023-07-20T04:23:16;16.17;;;10.93;;
46731;SDS011;32477;51.474;5.696;2023-07-20T04:25:42;17.00;;;10.10;;
46731;SDS011;32477;51.474;5.696;2023-07-20T04:28:08;20.27;;;10.90;;
46731;SDS011;32477;51.474;5.696;2023-07-20T04:30:34;19.60;;;11.18;;
46731;SDS011;32477;51.474;5.696;2023-07-20T04:33:01;17.55;;;12.10;;
46731;SDS011;32477;51.474;5.696;2023-07-20T04:38:18;24.38;;;11.95;;
46731;SDS011;32477;51.474;5.696;2023-07-20T04:40:45;21.50;;;11.60;;
46731;SDS011;32477;51.474;5.696;2023-07-20T04:43:11;18.73;;;11.93;;
46731;SDS011;32477;51.474;5.696;2023-07-20T04:45:37;17.17;;;12.45;;
46731;SDS011;32477;51.474;5.696;2023-07-20T04:48:03;18.80;;;12.52;;
46731;SDS011;32477;51.474;5.696;2023-07-20T04:50:30;20.73;;;12.07;;
46731;SDS011;32477;51.474;5.696;2023-07-20T04:52:55;24.25;;;13.02;;
46731;SDS011;32477;51.474;5.696;2023-07-20T04:55:21;20.67;;;12.25;;
46731;SDS011;32477;51.474;5.696;2023-07-20T04:57:47;17.08;;;11.07;;
46731;SDS011;32477;51.474;5.696;2023-07-20T05:00:12;19.88;;;11.45;;
46731;SDS011;32477;51.474;5.696;2023-07-20T05:02:39;15.93;;;9.80;;
46731;SDS011;32477;51.474;5.696;2023-07-20T05:05:05;13.63;;;9.95;;
46731;SDS011;32477;51.474;5.696;2023-07-20T05:07:31;15.50;;;9.70;;
46731;SDS011;32477;51.474;5.696;2023-07-20T05:09:57;16.40;;;9.68;;
46731;SDS011;32477;51.474;5.696;2023-07-20T05:12:23;11.55;;;8.63;;
46731;SDS011;32477;51.474;5.696;2023-07-20T05:14:48;10.98;;;7.57;;
46731;SDS011;32477;51.474;5.696;2023-07-20T05:17:14;12.77;;;9.23;;
46731;SDS011;32477;51.474;5.696;2023-07-20T05:19:40;13.95;;;8.70;;
46731;SDS011;32477;51.474;5.696;2023-07-20T05:22:05;13.30;;;7.50;;
46731;SDS011;32477;51.474;5.696;2023-07-20T05:24:31;11.65;;;8.25;;
46731;SDS011;32477;51.474;5.696;2023-07-20T05:26:57;14.05;;;7.65;;
46731;SDS011;32477;51.474;5.696;2023-07-20T05:29:23;8.80;;;6.85;;
46731;SDS011;32477;51.474;5.696;2023-07-20T05:31:50;10.10;;;7.57;;
46731;SDS011;32477;51.474;5.696;2023-07-20T05:34:16;12.02;;;6.03;;
46731;SDS011;32477;51.474;5.696;2023-07-20T05:36:41;9.38;;;6.47;;
46731;SDS011;32477;51.474;5.696;2023-07-20T05:39:07;8.70;;;5.47;;
46731;SDS011;32477;51.474;5.696;2023-07-20T05:41:33;10.02;;;6.25;;
46731;SDS011;32477;51.474;5.696;2023-07-20T05:43:58;7.32;;;5.63;;
46731;SDS011;32477;51.474;5.696;2023-07-20T05:46:24;9.10;;;4.85;;
46731;SDS011;32477;51.474;5.696;2023-07-20T05:48:50;6.50;;;4.75;;
46731;SDS011;32477;51.474;5.696;2023-07-20T05:51:15;7.35;;;4.75;;
46731;SDS011;32477;51.474;5.696;2023-07-20T05:53:41;4.85;;;4.15;;
46731;SDS011;32477;51.474;5.696;2023-07-20T05:56:06;5.53;;;3.40;;
46731;SDS011;32477;51.474;5.696;2023-07-20T05:58:35;6.88;;;4.18;;
46731;SDS011;32477;51.474;5.696;2023-07-20T06:01:01;5.75;;;4.15;;
46731;SDS011;32477;51.474;5.696;2023-07-20T06:03:30;6.65;;;3.83;;
46731;SDS011;32477;51.474;5.696;2023-07-20T06:06:00;5.13;;;4.07;;
46731;SDS011;32477;51.474;5.696;2023-07-20T06:08:27;7.47;;;4.35;;
46731;SDS011;32477;51.474;5.696;2023-07-20T06:10:54;4.18;;;3.78;;
46731;SDS011;32477;51.474;5.696;2023-07-20T06:13:19;7.55;;;3.92;;
46731;SDS011;32477;51.474;5.696;2023-07-20T06:15:45;6.97;;;4.00;;
46731;SDS011;32477;51.474;5.696;2023-07-20T06:18:12;5.30;;;3.75;;
46731;SDS011;32477;51.474;5.696;2023-07-20T06:20:38;6.43;;;4.55;;
46731;SDS011;32477;51.474;5.696;2023-07-20T06:23:03;8.65;;;4.63;;
46731;SDS011;32477;51.474;5.696;2023-07-20T06:25:29;5.63;;;4.35;;
46731;SDS011;32477;51.474;5.696;2023-07-20T06:27:55;11.13;;;4.85;;
46731;SDS011;32477;51.474;5.696;2023-07-20T06:30:21;6.78;;;4.88;;
46731;SDS011;32477;51.474;5.696;2023-07-20T06:32:47;10.27;;;5.53;;
46731;SDS011;32477;51.474;5.696;2023-07-20T06:35:14;6.05;;;4.22;;
46731;SDS011;32477;51.474;5.696;2023-07-20T06:37:40;6.97;;;4.57;;
46731;SDS011;32477;51.474;5.696;2023-07-20T06:40:06;6.07;;;4.80;;
46731;SDS011;32477;51.474;5.696;2023-07-20T06:42:34;4.85;;;4.13;;
46731;SDS011;32477;51.474;5.696;2023-07-20T06:45:00;7.80;;;5.07;;
46731;SDS011;32477;51.474;5.696;2023-07-20T06:47:25;5.35;;;4.20;;
46731;SDS011;32477;51.474;5.696;2023-07-20T06:49:51;7.18;;;5.07;;
46731;SDS011;32477;51.474;5.696;2023-07-20T06:52:17;9.93;;;3.70;;
46731;SDS011;32477;51.474;5.696;2023-07-20T06:54:43;7.65;;;4.03;;
46731;SDS011;32477;51.474;5.696;2023-07-20T06:57:08;4.55;;;3.72;;
46731;SDS011;32477;51.474;5.696;2023-07-20T06:59:34;4.68;;;2.80;;
46731;SDS011;32477;51.474;5.696;2023-07-20T07:02:00;4.47;;;2.92;;
46731;SDS011;32477;51.474;5.696;2023-07-20T07:04:25;6.65;;;1.90;;
46731;SDS011;32477;51.474;5.696;2023-07-20T07:06:52;3.63;;;2.15;;
46731;SDS011;32477;51.474;5.696;2023-07-20T07:09:17;2.20;;;1.95;;
46731;SDS011;32477;51.474;5.696;2023-07-20T07:11:43;3.60;;;1.83;;
46731;SDS011;32477;51.474;5.696;2023-07-20T07:14:09;3.88;;;2.28;;
46731;SDS011;32477;51.474;5.696;2023-07-20T07:16:37;3.30;;;2.10;;
46731;SDS011;32477;51.474;5.696;2023-07-20T07:19:02;4.22;;;2.42;;
46731;SDS011;32477;51.474;5.696;2023-07-20T07:21:28;3.03;;;2.10;;
46731;SDS011;32477;51.474;5.696;2023-07-20T07:23:54;3.70;;;3.03;;
46731;SDS011;32477;51.474;5.696;2023-07-20T07:26:22;4.45;;;3.10;;
46731;SDS011;32477;51.474;5.696;2023-07-20T07:28:48;4.72;;;2.60;;
46731;SDS011;32477;51.474;5.696;2023-07-20T07:31:14;8.90;;;2.38;;
46731;SDS011;32477;51.474;5.696;2023-07-20T07:33:40;5.28;;;2.90;;
46731;SDS011;32477;51.474;5.696;2023-07-20T07:36:06;3.92;;;2.85;;
46731;SDS011;32477;51.474;5.696;2023-07-20T07:38:31;4.50;;;2.70;;
46731;SDS011;32477;51.474;5.696;2023-07-20T07:40:57;300.70;;;31.38;;
46731;SDS011;32477;51.474;5.696;2023-07-20T07:43:23;49.85;;;7.43;;
46731;SDS011;32477;51.474;5.696;2023-07-20T07:45:49;9.10;;;3.13;;
46731;SDS011;32477;51.474;5.696;2023-07-20T07:48:15;6.25;;;2.55;;
46731;SDS011;32477;51.474;5.696;2023-07-20T07:50:42;15.40;;;3.08;;
46731;SDS011;32477;51.474;5.696;2023-07-20T07:53:07;7.00;;;2.40;;
46731;SDS011;32477;51.474;5.696;2023-07-20T07:55:34;61.58;;;8.60;;
46731;SDS011;32477;51.474;5.696;2023-07-20T07:58:00;9.43;;;3.05;;
46731;SDS011;32477;51.474;5.696;2023-07-20T08:00:26;15.27;;;3.80;;
46731;SDS011;32477;51.474;5.696;2023-07-20T08:02:51;8.40;;;2.20;;
46731;SDS011;32477;51.474;5.696;2023-07-20T08:05:17;102.30;;;12.93;;
46731;SDS011;32477;51.474;5.696;2023-07-20T08:07:43;7.75;;;2.20;;
46731;SDS011;32477;51.474;5.696;2023-07-20T08:10:09;4.57;;;2.15;;
46731;SDS011;32477;51.474;5.696;2023-07-20T08:12:35;9.88;;;1.92;;
46731;SDS011;32477;51.474;5.696;2023-07-20T08:15:01;1.80;;;1.33;;
46731;SDS011;32477;51.474;5.696;2023-07-20T08:17:26;2.53;;;1.73;;
46731;SDS011;32477;51.474;5.696;2023-07-20T08:19:52;2.03;;;1.27;;
46731;SDS011;32477;51.474;5.696;2023-07-20T08:22:18;2.67;;;1.27;;
46731;SDS011;32477;51.474;5.696;2023-07-20T08:24:44;2.72;;;1.83;;
46731;SDS011;32477;51.474;5.696;2023-07-20T08:27:10;5.95;;;1.75;;
46731;SDS011;32477;51.474;5.696;2023-07-20T08:29:36;2.00;;;1.30;;
46731;SDS011;32477;51.474;5.696;2023-07-20T08:32:02;2.63;;;1.65;;
46731;SDS011;32477;51.474;5.696;2023-07-20T08:34:29;3.67;;;1.75;;
46731;SDS011;32477;51.474;5.696;2023-07-20T08:36:55;2.42;;;1.58;;
46731;SDS011;32477;51.474;5.696;2023-07-20T08:39:21;18.13;;;3.22;;
46731;SDS011;32477;51.474;5.696;2023-07-20T08:41:47;67.20;;;8.77;;
46731;SDS011;32477;51.474;5.696;2023-07-20T08:44:14;28.90;;;4.70;;
46731;SDS011;32477;51.474;5.696;2023-07-20T08:46:40;2.97;;;1.58;;
46731;SDS011;32477;51.474;5.696;2023-07-20T08:49:06;1.48;;;1.17;;
46731;SDS011;32477;51.474;5.696;2023-07-20T08:51:32;2.63;;;0.98;;
46731;SDS011;32477;51.474;5.696;2023-07-20T08:53:58;17.98;;;4.05;;
46731;SDS011;32477;51.474;5.696;2023-07-20T08:56:25;2.67;;;1.52;;
46731;SDS011;32477;51.474;5.696;2023-07-20T08:58:51;1.83;;;1.20;;
46731;SDS011;32477;51.474;5.696;2023-07-20T09:01:18;18.08;;;2.53;;
46731;SDS011;32477;51.474;5.696;2023-07-20T09:03:45;11.63;;;1.67;;
46731;SDS011;32477;51.474;5.696;2023-07-20T09:06:11;4.13;;;1.58;;
46731;SDS011;32477;51.474;5.696;2023-07-20T09:08:38;5.53;;;1.45;;
46731;SDS011;32477;51.474;5.696;2023-07-20T09:11:04;2.15;;;1.27;;
46731;SDS011;32477;51.474;5.696;2023-07-20T09:13:32;1.88;;;1.60;;
46731;SDS011;32477;51.474;5.696;2023-07-20T09:15:58;2.05;;;1.35;;
46731;SDS011;32477;51.474;5.696;2023-07-20T09:18:28;5.00;;;1.27;;
46731;SDS011;32477;51.474;5.696;2023-07-20T09:20:58;1.58;;;0.90;;
46731;SDS011;32477;51.474;5.696;2023-07-20T09:23:30;2.35;;;1.30;;
46731;SDS011;32477;51.474;5.696;2023-07-20T09:25:57;4.03;;;1.10;;
46731;SDS011;32477;51.474;5.696;2023-07-20T09:28:23;2.38;;;1.05;;
46731;SDS011;32477;51.474;5.696;2023-07-20T09:30:48;2.50;;;1.48;;
46731;SDS011;32477;51.474;5.696;2023-07-20T09:33:24;3.20;;;1.23;;
46731;SDS011;32477;51.474;5.696;2023-07-20T09:35:50;4.97;;;1.15;;
46731;SDS011;32477;51.474;5.696;2023-07-20T09:38:15;3.47;;;1.20;;
46731;SDS011;32477;51.474;5.696;2023-07-20T09:40:41;2.08;;;1.00;;
46731;SDS011;32477;51.474;5.696;2023-07-20T09:43:07;3.88;;;1.30;;
46731;SDS011;32477;51.474;5.696;2023-07-20T09:45:35;1.75;;;1.25;;
46731;SDS011;32477;51.474;5.696;2023-07-20T09:48:05;2.03;;;1.08;;
46731;SDS011;32477;51.474;5.696;2023-07-20T09:50:41;2.13;;;1.23;;
46731;SDS011;32477;51.474;5.696;2023-07-20T09:53:09;1.85;;;1.20;;
46731;SDS011;32477;51.474;5.696;2023-07-20T09:55:38;3.88;;;1.52;;
46731;SDS011;32477;51.474;5.696;2023-07-20T09:58:05;2.58;;;1.20;;
46731;SDS011;32477;51.474;5.696;2023-07-20T10:00:34;1.67;;;1.23;;
46731;SDS011;32477;51.474;5.696;2023-07-20T10:03:03;2.85;;;1.60;;
46731;SDS011;32477;51.474;5.696;2023-07-20T10:05:32;3.33;;;1.50;;
46731;SDS011;32477;51.474;5.696;2023-07-20T10:08:01;3.33;;;1.33;;
46731;SDS011;32477;51.474;5.696;2023-07-20T10:10:29;1.88;;;1.50;;
46731;SDS011;32477;51.474;5.696;2023-07-20T10:12:58;1.63;;;1.30;;
46731;SDS011;32477;51.474;5.696;2023-07-20T10:15:32;3.30;;;1.27;;
46731;SDS011;32477;51.474;5.696;2023-07-20T10:18:07;1.05;;;0.80;;
46731;SDS011;32477;51.474;5.696;2023-07-20T10:20:43;2.17;;;1.33;;
46731;SDS011;32477;51.474;5.696;2023-07-20T10:23:11;1.00;;;0.90;;
46731;SDS011;32477;51.474;5.696;2023-07-20T10:25:37;1.77;;;1.00;;
46731;SDS011;32477;51.474;5.696;2023-07-20T10:28:06;2.00;;;0.90;;
46731;SDS011;32477;51.474;5.696;2023-07-20T10:30:35;2.75;;;1.08;;
46731;SDS011;32477;51.474;5.696;2023-07-20T10:33:02;4.28;;;0.88;;
46731;SDS011;32477;51.474;5.696;2023-07-20T10:35:29;3.72;;;0.85;;
46731;SDS011;32477;51.474;5.696;2023-07-20T10:38:04;3.42;;;0.82;;
46731;SDS011;32477;51.474;5.696;2023-07-20T10:40:31;1.02;;;0.70;;
46731;SDS011;32477;51.474;5.696;2023-07-20T10:43:01;2.15;;;0.90;;
46731;SDS011;32477;51.474;5.696;2023-07-20T10:45:41;3.65;;;1.13;;
46731;SDS011;32477;51.474;5.696;2023-07-20T10:48:13;1.02;;;0.90;;
46731;SDS011;32477;51.474;5.696;2023-07-20T10:51:08;2.90;;;0.95;;
46731;SDS011;32477;51.474;5.696;2023-07-20T10:53:39;2.75;;;1.10;;
46731;SDS011;32477;51.474;5.696;2023-07-20T10:56:06;3.63;;;0.90;;
46731;SDS011;32477;51.474;5.696;2023-07-20T10:58:33;1.33;;;0.90;;
46731;SDS011;32477;51.474;5.696;2023-07-20T11:01:03;2.35;;;1.20;;
46731;SDS011;32477;51.474;5.696;2023-07-20T11:03:34;3.88;;;1.00;;
46731;SDS011;32477;51.474;5.696;2023-07-20T11:08:50;1.70;;;1.17;;
46731;SDS011;32477;51.474;5.696;2023-07-20T11:11:30;1.60;;;1.08;;
46731;SDS011;32477;51.474;5.696;2023-07-20T11:13:57;2.20;;;1.20;;
46731;SDS011;32477;51.474;5.696;2023-07-20T11:19:06;2.90;;;1.40;;
46731;SDS011;32477;51.474;5.696;2023-07-20T11:21:40;2.03;;;1.20;;
46731;SDS011;32477;51.474;5.696;2023-07-20T11:24:07;2.92;;;0.98;;
46731;SDS011;32477;51.474;5.696;2023-07-20T11:26:43;105.10;;;12.50;;
46731;SDS011;32477;51.474;5.696;2023-07-20T11:29:13;8.77;;;2.33;;
46731;SDS011;32477;51.474;5.696;2023-07-20T11:31:41;3.42;;;0.98;;
46731;SDS011;32477;51.474;5.696;2023-07-20T11:34:10;2.25;;;1.08;;
46731;SDS011;32477;51.474;5.696;2023-07-20T11:36:44;7.00;;;1.05;;
46731;SDS011;32477;51.474;5.696;2023-07-20T11:39:14;7.90;;;1.17;;
46731;SDS011;32477;51.474;5.696;2023-07-20T11:44:16;7.13;;;0.95;;
46731;SDS011;32477;51.474;5.696;2023-07-20T11:46:43;2.10;;;0.70;;
46731;SDS011;32477;51.474;5.696;2023-07-20T11:49:10;4.65;;;0.95;;
46731;SDS011;32477;51.474;5.696;2023-07-20T11:51:39;1.98;;;0.85;;
46731;SDS011;32477;51.474;5.696;2023-07-20T11:54:07;1.88;;;0.70;;
46731;SDS011;32477;51.474;5.696;2023-07-20T11:56:34;1.02;;;0.60;;
46731;SDS011;32477;51.474;5.696;2023-07-20T11:59:00;3.95;;;1.00;;
46731;SDS011;32477;51.474;5.696;2023-07-20T12:01:30;2.17;;;0.90;;
46731;SDS011;32477;51.474;5.696;2023-07-20T12:04:00;1.08;;;0.98;;
46731;SDS011;32477;51.474;5.696;2023-07-20T12:06:29;1.25;;;0.77;;
46731;SDS011;32477;51.474;5.696;2023-07-20T12:08:56;3.25;;;1.00;;
46731;SDS011;32477;51.474;5.696;2023-07-20T12:11:35;11.82;;;1.30;;
46731;SDS011;32477;51.474;5.696;2023-07-20T12:14:04;1.55;;;0.80;;
46731;SDS011;32477;51.474;5.696;2023-07-20T12:16:32;1.65;;;0.85;;
46731;SDS011;32477;51.474;5.696;2023-07-20T12:21:31;2.33;;;1.00;;
46731;SDS011;32477;51.474;5.696;2023-07-20T12:23:57;4.45;;;0.80;;
46731;SDS011;32477;51.474;5.696;2023-07-20T12:26:24;3.63;;;1.10;;
46731;SDS011;32477;51.474;5.696;2023-07-20T12:28:50;4.85;;;1.30;;
46731;SDS011;32477;51.474;5.696;2023-07-20T12:31:17;2.22;;;1.23;;
46731;SDS011;32477;51.474;5.696;2023-07-20T12:33:54;1.25;;;1.00;;
46731;SDS011;32477;51.474;5.696;2023-07-20T12:36:23;2.17;;;0.85;;
46731;SDS011;32477;51.474;5.696;2023-07-20T12:38:49;2.83;;;1.27;;
46731;SDS011;32477;51.474;5.696;2023-07-20T12:41:15;2.97;;;1.60;;
46731;SDS011;32477;51.474;5.696;2023-07-20T12:43:44;2.42;;;0.75;;
46731;SDS011;32477;51.474;5.696;2023-07-20T12:46:10;1.23;;;1.00;;
46731;SDS011;32477;51.474;5.696;2023-07-20T12:48:37;1.73;;;0.80;;
46731;SDS011;32477;51.474;5.696;2023-07-20T12:51:05;4.70;;;1.13;;
46731;SDS011;32477;51.474;5.696;2023-07-20T12:53:31;1.30;;;1.02;;
46731;SDS011;32477;51.474;5.696;2023-07-20T12:55:57;1.35;;;1.05;;
46731;SDS011;32477;51.474;5.696;2023-07-20T12:58:23;1.80;;;1.20;;
46731;SDS011;32477;51.474;5.696;2023-07-20T13:00:49;0.98;;;0.88;;
46731;SDS011;32477;51.474;5.696;2023-07-20T13:03:15;1.33;;;1.20;;
46731;SDS011;32477;51.474;5.696;2023-07-20T13:05:43;4.93;;;1.33;;
46731;SDS011;32477;51.474;5.696;2023-07-20T13:08:09;1.13;;;0.90;;
46731;SDS011;32477;51.474;5.696;2023-07-20T13:10:35;2.75;;;0.82;;
46731;SDS011;32477;51.474;5.696;2023-07-20T13:13:01;1.25;;;0.90;;
46731;SDS011;32477;51.474;5.696;2023-07-20T13:15:30;3.53;;;0.90;;
46731;SDS011;32477;51.474;5.696;2023-07-20T13:17:57;1.15;;;0.98;;
46731;SDS011;32477;51.474;5.696;2023-07-20T13:20:24;3.65;;;1.13;;
46731;SDS011;32477;51.474;5.696;2023-07-20T13:22:50;6.53;;;3.58;;
46731;SDS011;32477;51.474;5.696;2023-07-20T13:25:16;2.55;;;1.40;;
46731;SDS011;32477;51.474;5.696;2023-07-20T13:27:43;1.60;;;1.10;;
46731;SDS011;32477;51.474;5.696;2023-07-20T13:30:09;4.25;;;1.40;;
46731;SDS011;32477;51.474;5.696;2023-07-20T13:32:41;1.95;;;1.20;;
46731;SDS011;32477;51.474;5.696;2023-07-20T13:35:10;1.05;;;0.90;;
46731;SDS011;32477;51.474;5.696;2023-07-20T13:37:38;2.15;;;1.23;;
46731;SDS011;32477;51.474;5.696;2023-07-20T13:40:04;3.03;;;0.85;;
46731;SDS011;32477;51.474;5.696;2023-07-20T13:42:31;3.58;;;0.90;;
46731;SDS011;32477;51.474;5.696;2023-07-20T13:44:57;1.30;;;1.10;;
46731;SDS011;32477;51.474;5.696;2023-07-20T13:47:23;2.13;;;0.90;;
46731;SDS011;32477;51.474;5.696;2023-07-20T13:49:49;4.40;;;1.00;;
46731;SDS011;32477;51.474;5.696;2023-07-20T13:52:16;2.75;;;1.17;;
46731;SDS011;32477;51.474;5.696;2023-07-20T13:54:42;1.48;;;0.80;;
46731;SDS011;32477;51.474;5.696;2023-07-20T13:57:07;1.20;;;0.90;;
46731;SDS011;32477;51.474;5.696;2023-07-20T13:59:33;4.47;;;1.20;;
46731;SDS011;32477;51.474;5.696;2023-07-20T14:01:58;8.27;;;1.38;;
46731;SDS011;32477;51.474;5.696;2023-07-20T14:04:24;1.52;;;1.10;;
46731;SDS011;32477;51.474;5.696;2023-07-20T14:06:52;2.20;;;1.40;;
46731;SDS011;32477;51.474;5.696;2023-07-20T14:09:33;1.30;;;1.20;;
46731;SDS011;32477;51.474;5.696;2023-07-20T14:11:58;3.75;;;0.90;;
46731;SDS011;32477;51.474;5.696;2023-07-20T14:14:24;1.58;;;0.90;;
46731;SDS011;32477;51.474;5.696;2023-07-20T14:16:50;6.10;;;1.20;;
46731;SDS011;32477;51.474;5.696;2023-07-20T14:19:15;5.05;;;1.20;;
46731;SDS011;32477;51.474;5.696;2023-07-20T14:21:41;3.42;;;1.60;;
46731;SDS011;32477;51.474;5.696;2023-07-20T14:24:06;1.42;;;1.33;;
46731;SDS011;32477;51.474;5.696;2023-07-20T14:26:32;4.95;;;1.20;;
46731;SDS011;32477;51.474;5.696;2023-07-20T14:28:58;1.77;;;1.25;;
46731;SDS011;32477;51.474;5.696;2023-07-20T14:31:23;4.35;;;1.10;;
46731;SDS011;32477;51.474;5.696;2023-07-20T14:33:49;2.55;;;1.40;;
46731;SDS011;32477;51.474;5.696;2023-07-20T14:36:15;1.83;;;1.63;;
46731;SDS011;32477;51.474;5.696;2023-07-20T14:38:40;1.98;;;1.30;;
46731;SDS011;32477;51.474;5.696;2023-07-20T14:41:06;4.82;;;1.48;;
46731;SDS011;32477;51.474;5.696;2023-07-20T14:43:32;4.00;;;1.40;;
46731;SDS011;32477;51.474;5.696;2023-07-20T14:45:57;1.17;;;0.98;;
46731;SDS011;32477;51.474;5.696;2023-07-20T14:48:23;6.72;;;1.45;;
46731;SDS011;32477;51.474;5.696;2023-07-20T14:50:49;3.60;;;1.60;;
46731;SDS011;32477;51.474;5.696;2023-07-20T14:53:14;2.15;;;1.50;;
46731;SDS011;32477;51.474;5.696;2023-07-20T14:55:41;2.05;;;1.50;;
46731;SDS011;32477;51.474;5.696;2023-07-20T14:58:07;2.05;;;1.25;;
46731;SDS011;32477;51.474;5.696;2023-07-20T15:00:33;4.25;;;1.67;;
46731;SDS011;32477;51.474;5.696;2023-07-20T15:02:58;3.72;;;1.58;;
46731;SDS011;32477;51.474;5.696;2023-07-20T15:05:24;2.95;;;1.25;;